createdAt,value
2019-03-25T00:01:33.767Z,0.27
2019-03-25T00:06:33.757Z,0.03
2019-03-25T00:11:33.748Z,0.00
2019-03-25T00:16:33.743Z,0.00
2019-03-25T00:21:33.755Z,0.12
2019-03-25T00:26:33.760Z,0.04
2019-03-25T00:31:33.748Z,0.00
2019-03-25T00:36:33.777Z,0.02
2019-03-25T00:41:33.744Z,0.03
2019-03-25T00:46:33.761Z,0.00
2019-03-25T00:51:33.746Z,0.00
2019-03-25T00:56:33.754Z,0.28
2019-03-25T01:01:33.754Z,0.03
2019-03-25T01:06:33.764Z,0.05
2019-03-25T01:11:33.745Z,0.20
2019-03-25T01:16:33.769Z,0.00
2019-03-25T01:21:33.742Z,0.35
2019-03-25T01:26:33.748Z,0.12
2019-03-25T01:31:33.725Z,0.06
2019-03-25T01:36:33.772Z,0.03
2019-03-25T01:41:33.740Z,0.03
2019-03-25T01:46:33.774Z,0.03
2019-03-25T01:51:33.737Z,0.00
2019-03-25T01:56:33.784Z,0.14
2019-03-25T02:01:33.729Z,0.21
2019-03-25T02:06:33.760Z,0.69
2019-03-25T02:11:33.727Z,0.26
2019-03-25T02:16:35.707Z,0.12
2019-03-25T02:21:33.748Z,0.10
2019-03-25T02:26:33.749Z,0.13
2019-03-25T02:31:33.725Z,0.00
2019-03-25T02:36:33.719Z,0.03
2019-03-25T02:41:33.745Z,0.03
2019-03-25T02:46:33.774Z,0.01
2019-03-25T02:51:33.723Z,0.00
2019-03-25T02:56:33.753Z,0.00
2019-03-25T03:01:33.759Z,0.00
2019-03-25T03:06:33.746Z,0.00
2019-03-25T03:11:33.771Z,0.31
2019-03-25T03:16:33.702Z,0.07
2019-03-25T03:21:33.746Z,0.31
2019-03-25T03:26:33.717Z,0.00
2019-03-25T03:31:33.775Z,0.00
2019-03-25T03:36:33.711Z,0.00
2019-03-25T03:41:33.760Z,0.00
2019-03-25T03:46:33.722Z,0.00
2019-03-25T03:51:33.708Z,0.00
2019-03-25T03:56:33.729Z,0.00
2019-03-25T04:01:33.713Z,0.32
2019-03-25T04:06:33.751Z,0.39
2019-03-25T04:11:33.721Z,0.01
2019-03-25T04:16:33.736Z,0.01
2019-03-25T04:21:33.720Z,0.02
2019-03-25T04:26:33.717Z,0.00
2019-03-25T04:31:33.739Z,0.00
2019-03-25T04:36:33.737Z,0.00
2019-03-25T04:41:33.727Z,0.00
2019-03-25T04:46:33.704Z,0.00
2019-03-25T04:51:33.723Z,0.00
2019-03-25T04:56:39.582Z,0.06
2019-03-25T05:01:33.741Z,0.00
2019-03-25T05:06:33.686Z,0.03
2019-03-25T05:11:33.743Z,0.01
2019-03-25T05:16:33.715Z,0.10
2019-03-25T05:21:33.709Z,0.20
2019-03-25T05:26:33.761Z,0.72
2019-03-25T05:31:33.699Z,1.00
2019-03-25T05:36:33.709Z,0.64
2019-03-25T05:41:33.707Z,0.46
2019-03-25T05:46:33.741Z,0.70
2019-03-25T05:51:33.704Z,0.71
2019-03-25T05:56:33.729Z,0.24
2019-03-25T06:01:33.696Z,0.09
2019-03-25T06:06:33.712Z,0.58
2019-03-25T06:11:33.739Z,0.31
2019-03-25T06:16:33.706Z,0.02
2019-03-25T06:21:33.700Z,0.10
2019-03-25T06:26:33.714Z,1.04
2019-03-25T06:31:33.690Z,1.03
2019-03-25T06:36:33.684Z,0.47
2019-03-25T06:41:33.693Z,0.92
2019-03-25T06:46:33.706Z,1.18
2019-03-25T06:51:33.731Z,0.22
2019-03-25T06:56:33.702Z,0.86
2019-03-25T07:01:33.738Z,0.86
2019-03-25T07:06:33.682Z,0.68
2019-03-25T07:11:33.706Z,0.68
2019-03-25T07:16:33.696Z,0.56
2019-03-25T07:21:33.705Z,0.29
2019-03-25T07:26:33.699Z,0.08
2019-03-25T07:31:33.690Z,0.49
2019-03-25T07:36:33.700Z,0.47
2019-03-25T07:41:33.727Z,0.71
2019-03-25T07:46:33.680Z,0.43
2019-03-25T07:51:33.678Z,1.20
2019-03-25T07:56:33.733Z,1.58
2019-03-25T08:01:33.711Z,1.16
2019-03-25T08:06:33.704Z,0.73
2019-03-25T08:11:33.720Z,0.65
2019-03-25T08:16:33.728Z,1.08
2019-03-25T08:21:33.701Z,0.96
2019-03-25T08:26:33.675Z,1.13
2019-03-25T08:31:33.709Z,1.02
2019-03-25T08:36:33.689Z,0.76
2019-03-25T08:41:33.687Z,1.36
2019-03-25T08:46:33.708Z,1.08
2019-03-25T08:51:33.691Z,1.25
2019-03-25T08:56:33.720Z,1.16
2019-03-25T09:01:33.706Z,1.31
2019-03-25T09:06:33.699Z,1.96
2019-03-25T09:11:33.686Z,1.36
2019-03-25T09:16:33.794Z,1.36
2019-03-25T09:21:33.827Z,2.25
2019-03-25T09:26:33.694Z,1.52
2019-03-25T09:31:37.029Z,1.59
2019-03-25T09:36:33.821Z,0.82
2019-03-25T09:41:33.709Z,0.96
2019-03-25T09:46:33.693Z,1.12
2019-03-25T09:51:33.722Z,1.00
2019-03-25T09:56:33.705Z,0.70
2019-03-25T10:01:33.731Z,1.47
2019-03-25T10:06:33.717Z,1.22
2019-03-25T10:11:33.712Z,1.47
2019-03-25T10:16:33.706Z,1.43
2019-03-25T10:21:33.686Z,1.31
2019-03-25T10:26:33.682Z,1.54
2019-03-25T10:31:33.710Z,1.48
2019-03-25T10:36:33.690Z,1.34
2019-03-25T10:41:33.698Z,0.94
2019-03-25T10:46:33.702Z,0.29
2019-03-25T10:51:33.705Z,0.72
2019-03-25T10:56:33.675Z,1.05
2019-03-25T11:01:33.708Z,0.80
2019-03-25T11:06:33.677Z,1.07
2019-03-25T11:11:33.730Z,0.64
2019-03-25T11:16:33.722Z,0.54
